sensor_id;sensor_type;location;lat;lon;timestamp;pressure;altitude;pressure_sealevel;temperature;humidity
43503;BME280;29098;48.184;16.298;2023-05-10T00:01:53;99186.00;;;10.85;71.99
43503;BME280;29098;48.184;16.298;2023-05-10T00:04:19;99233.53;;;10.92;72.60
43503;BME280;29098;48.184;16.298;2023-05-10T00:06:45;99227.19;;;10.86;72.68
43503;BME280;29098;48.184;16.298;2023-05-10T00:09:10;99239.09;;;10.82;72.94
43503;BME280;29098;48.184;16.298;2023-05-10T00:11:36;99211.31;;;10.79;72.36
43503;BME280;29098;48.184;16.298;2023-05-10T00:14:02;99224.94;;;10.83;73.22
43503;BME280;29098;48.184;16.298;2023-05-10T00:16:27;99231.09;;;10.90;73.03
43503;BME280;29098;48.184;16.298;2023-05-10T00:18:52;99214.97;;;11.00;72.09
43503;BME280;29098;48.184;16.298;2023-05-10T00:21:18;99153.41;;;10.49;73.51
43503;BME280;29098;48.184;16.298;2023-05-10T00:23:46;99153.31;;;10.43;73.83
43503;BME280;29098;48.184;16.298;2023-05-10T00:26:11;99195.72;;;10.63;74.00
43503;BME280;29098;48.184;16.298;2023-05-10T00:28:36;99193.66;;;10.80;73.70
43503;BME280;29098;48.184;16.298;2023-05-10T00:31:02;99198.94;;;10.80;72.86
43503;BME280;29098;48.184;16.298;2023-05-10T00:33:27;99121.53;;;10.29;74.15
43503;BME280;29098;48.184;16.298;2023-05-10T00:35:53;99180.00;;;10.54;73.83
43503;BME280;29098;48.184;16.298;2023-05-10T00:38:18;99143.66;;;10.50;73.67
43503;BME280;29098;48.184;16.298;2023-05-10T00:40:44;99133.13;;;10.50;73.13
43503;BME280;29098;48.184;16.298;2023-05-10T00:43:09;99129.47;;;10.51;73.19
43503;BME280;29098;48.184;16.298;2023-05-10T00:45:35;99119.41;;;10.39;73.90
43503;BME280;29098;48.184;16.298;2023-05-10T00:48:02;99152.22;;;10.52;74.39
43503;BME280;29098;48.184;16.298;2023-05-10T00:50:29;99140.66;;;10.53;74.49
43503;BME280;29098;48.184;16.298;2023-05-10T00:52:56;99146.28;;;10.50;74.62
43503;BME280;29098;48.184;16.298;2023-05-10T00:55:22;99190.47;;;10.48;75.42
43503;BME280;29098;48.184;16.298;2023-05-10T00:57:50;99167.56;;;10.33;76.34
43503;BME280;29098;48.184;16.298;2023-05-10T01:00:17;99182.13;;;10.29;76.43
43503;BME280;29098;48.184;16.298;2023-05-10T01:02:44;99143.44;;;9.99;77.05
43503;BME280;29098;48.184;16.298;2023-05-10T01:05:11;99117.22;;;9.76;77.87
43503;BME280;29098;48.184;16.298;2023-05-10T01:07:37;99169.50;;;10.09;77.74
43503;BME280;29098;48.184;16.298;2023-05-10T01:10:04;99151.25;;;9.93;78.63
43503;BME280;29098;48.184;16.298;2023-05-10T01:12:30;99138.19;;;9.84;79.20
43503;BME280;29098;48.184;16.298;2023-05-10T01:14:55;99163.59;;;9.92;79.67
43503;BME280;29098;48.184;16.298;2023-05-10T01:17:21;99164.78;;;9.90;79.77
43503;BME280;29098;48.184;16.298;2023-05-10T01:19:47;99169.66;;;9.78;80.45
43503;BME280;29098;48.184;16.298;2023-05-10T01:23:16;99130.72;;;9.73;80.62
43503;BME280;29098;48.184;16.298;2023-05-10T01:31:12;99132.66;;;9.64;81.96
43503;BME280;29098;48.184;16.298;2023-05-10T01:33:51;99103.34;;;9.52;82.23
43503;BME280;29098;48.184;16.298;2023-05-10T01:36:32;99146.34;;;9.59;82.48
43503;BME280;29098;48.184;16.298;2023-05-10T01:39:21;99146.06;;;9.54;83.13
43503;BME280;29098;48.184;16.298;2023-05-10T01:41:54;99150.28;;;9.79;82.12
43503;BME280;29098;48.184;16.298;2023-05-10T01:44:33;99077.09;;;9.29;83.65
43503;BME280;29098;48.184;16.298;2023-05-10T01:47:07;99106.59;;;9.54;83.47
43503;BME280;29098;48.184;16.298;2023-05-10T01:49:41;99105.88;;;9.61;83.79
43503;BME280;29098;48.184;16.298;2023-05-10T01:52:10;99103.84;;;9.32;84.60
43503;BME280;29098;48.184;16.298;2023-05-10T01:54:44;99111.50;;;9.57;84.70
43503;BME280;29098;48.184;16.298;2023-05-10T01:57:16;99142.59;;;9.39;86.04
43503;BME280;29098;48.184;16.298;2023-05-10T01:59:43;99106.09;;;9.36;85.63
43503;BME280;29098;48.184;16.298;2023-05-10T02:02:10;99069.72;;;9.24;85.07
43503;BME280;29098;48.184;16.298;2023-05-10T02:04:38;99076.28;;;9.28;85.78
43503;BME280;29098;48.184;16.298;2023-05-10T02:07:05;99064.47;;;9.09;86.58
43503;BME280;29098;48.184;16.298;2023-05-10T02:09:32;99125.72;;;9.33;86.62
43503;BME280;29098;48.184;16.298;2023-05-10T02:11:59;99135.66;;;9.23;87.13
43503;BME280;29098;48.184;16.298;2023-05-10T02:14:29;99083.25;;;9.21;86.68
43503;BME280;29098;48.184;16.298;2023-05-10T02:16:56;99086.00;;;9.04;87.39
43503;BME280;29098;48.184;16.298;2023-05-10T02:19:24;99043.00;;;8.82;87.65
43503;BME280;29098;48.184;16.298;2023-05-10T02:21:51;99128.31;;;9.18;88.29
43503;BME280;29098;48.184;16.298;2023-05-10T02:24:17;99129.75;;;9.06;88.83
43503;BME280;29098;48.184;16.298;2023-05-10T02:26:44;99122.63;;;8.91;89.75
43503;BME280;29098;48.184;16.298;2023-05-10T02:29:11;99054.75;;;8.71;89.32
43503;BME280;29098;48.184;16.298;2023-05-10T02:31:38;99109.28;;;8.93;89.31
43503;BME280;29098;48.184;16.298;2023-05-10T02:34:05;99055.44;;;8.65;89.78
43503;BME280;29098;48.184;16.298;2023-05-10T02:36:32;99127.75;;;9.08;89.72
43503;BME280;29098;48.184;16.298;2023-05-10T02:38:59;99129.28;;;9.02;89.88
43503;BME280;29098;48.184;16.298;2023-05-10T02:41:27;99106.84;;;8.91;90.21
43503;BME280;29098;48.184;16.298;2023-05-10T02:43:56;99093.84;;;8.74;90.87
43503;BME280;29098;48.184;16.298;2023-05-10T02:46:23;99099.84;;;8.60;91.96
43503;BME280;29098;48.184;16.298;2023-05-10T02:48:48;99123.38;;;8.76;92.25
43503;BME280;29098;48.184;16.298;2023-05-10T02:51:15;99088.28;;;8.69;91.69
43503;BME280;29098;48.184;16.298;2023-05-10T02:53:44;99089.28;;;8.68;92.11
43503;BME280;29098;48.184;16.298;2023-05-10T02:56:18;99074.50;;;8.67;92.08
43503;BME280;29098;48.184;16.298;2023-05-10T02:58:45;99117.03;;;8.71;92.81
43503;BME280;29098;48.184;16.298;2023-05-10T03:01:11;99096.56;;;8.58;93.12
43503;BME280;29098;48.184;16.298;2023-05-10T03:03:37;99074.34;;;8.37;93.63
43503;BME280;29098;48.184;16.298;2023-05-10T03:06:02;99129.03;;;8.65;93.66
43503;BME280;29098;48.184;16.298;2023-05-10T03:08:28;99067.84;;;8.25;94.49
43503;BME280;29098;48.184;16.298;2023-05-10T03:17:09;99110.28;;;8.36;94.32
43503;BME280;29098;48.184;16.298;2023-05-10T03:22:09;99083.25;;;8.28;94.63
43503;BME280;29098;48.184;16.298;2023-05-10T03:24:36;99159.00;;;8.47;95.10
43503;BME280;29098;48.184;16.298;2023-05-10T03:27:04;99104.25;;;8.36;95.24
43503;BME280;29098;48.184;16.298;2023-05-10T03:29:31;99130.63;;;8.43;95.00
43503;BME280;29098;48.184;16.298;2023-05-10T03:31:59;99160.50;;;8.42;95.14
43503;BME280;29098;48.184;16.298;2023-05-10T03:34:25;99087.78;;;8.11;96.24
43503;BME280;29098;48.184;16.298;2023-05-10T03:36:51;99135.28;;;8.32;96.18
43503;BME280;29098;48.184;16.298;2023-05-10T03:39:17;99125.00;;;8.22;96.08
43503;BME280;29098;48.184;16.298;2023-05-10T03:41:42;99147.19;;;8.43;96.03
43503;BME280;29098;48.184;16.298;2023-05-10T03:44:08;99152.44;;;8.52;95.63
43503;BME280;29098;48.184;16.298;2023-05-10T03:46:33;99132.78;;;8.39;96.25
43503;BME280;29098;48.184;16.298;2023-05-10T03:48:59;99099.19;;;8.26;95.93
43503;BME280;29098;48.184;16.298;2023-05-10T03:51:24;99140.06;;;8.60;95.21
43503;BME280;29098;48.184;16.298;2023-05-10T03:53:54;99095.63;;;8.42;95.73
43503;BME280;29098;48.184;16.298;2023-05-10T03:56:19;99150.66;;;8.44;97.33
43503;BME280;29098;48.184;16.298;2023-05-10T03:58:46;99099.63;;;8.38;96.98
43503;BME280;29098;48.184;16.298;2023-05-10T04:01:11;99122.19;;;8.56;96.32
43503;BME280;29098;48.184;16.298;2023-05-10T04:03:37;99147.63;;;8.63;97.13
43503;BME280;29098;48.184;16.298;2023-05-10T04:06:03;99146.34;;;8.83;96.50
43503;BME280;29098;48.184;16.298;2023-05-10T04:08:29;99134.59;;;8.70;96.59
43503;BME280;29098;48.184;16.298;2023-05-10T04:11:04;99140.44;;;8.81;96.86
43503;BME280;29098;48.184;16.298;2023-05-10T04:13:30;99101.41;;;8.69;96.70
43503;BME280;29098;48.184;16.298;2023-05-10T04:15:56;99127.94;;;8.83;96.28
43503;BME280;29098;48.184;16.298;2023-05-10T04:18:21;99140.66;;;8.94;96.24
43503;BME280;29098;48.184;16.298;2023-05-10T04:20:46;99118.75;;;8.79;96.34
43503;BME280;29098;48.184;16.298;2023-05-10T04:23:12;99153.47;;;8.97;96.17
43503;BME280;29098;48.184;16.298;2023-05-10T04:25:39;99116.22;;;8.85;96.62
43503;BME280;29098;48.184;16.298;2023-05-10T04:28:04;99134.72;;;9.00;95.62
43503;BME280;29098;48.184;16.298;2023-05-10T04:30:30;99135.97;;;9.04;95.95
43503;BME280;29098;48.184;16.298;2023-05-10T04:32:55;99138.94;;;9.25;96.04
43503;BME280;29098;48.184;16.298;2023-05-10T04:35:21;99169.31;;;9.27;95.11
43503;BME280;29098;48.184;16.298;2023-05-10T04:37:46;99180.34;;;9.46;94.60
43503;BME280;29098;48.184;16.298;2023-05-10T04:40:12;99164.41;;;9.63;94.63
43503;BME280;29098;48.184;16.298;2023-05-10T04:42:40;99137.44;;;9.76;91.24
43503;BME280;29098;48.184;16.298;2023-05-10T04:45:06;99125.38;;;9.66;91.78
43503;BME280;29098;48.184;16.298;2023-05-10T04:47:32;99160.94;;;9.62;92.23
43503;BME280;29098;48.184;16.298;2023-05-10T04:49:58;99159.59;;;9.81;91.73
43503;BME280;29098;48.184;16.298;2023-05-10T04:52:24;99178.22;;;9.80;92.33
43503;BME280;29098;48.184;16.298;2023-05-10T04:54:49;99093.53;;;9.46;91.27
43503;BME280;29098;48.184;16.298;2023-05-10T04:57:15;99132.56;;;9.72;91.28
43503;BME280;29098;48.184;16.298;2023-05-10T04:59:41;99159.34;;;9.91;90.78
43503;BME280;29098;48.184;16.298;2023-05-10T05:02:07;99168.88;;;9.92;90.93
43503;BME280;29098;48.184;16.298;2023-05-10T05:04:33;99101.16;;;9.71;89.75
43503;BME280;29098;48.184;16.298;2023-05-10T05:06:58;99155.06;;;9.90;91.04
43503;BME280;29098;48.184;16.298;2023-05-10T05:09:24;99140.34;;;9.96;90.36
43503;BME280;29098;48.184;16.298;2023-05-10T05:11:49;99109.94;;;9.93;88.18
43503;BME280;29098;48.184;16.298;2023-05-10T05:14:14;99173.41;;;10.44;86.29
43503;BME280;29098;48.184;16.298;2023-05-10T05:16:40;99147.75;;;10.37;85.41
43503;BME280;29098;48.184;16.298;2023-05-10T05:19:05;99155.47;;;10.39;86.05
43503;BME280;29098;48.184;16.298;2023-05-10T05:21:31;99130.13;;;10.38;86.85
43503;BME280;29098;48.184;16.298;2023-05-10T05:23:57;99178.06;;;10.63;85.97
43503;BME280;29098;48.184;16.298;2023-05-10T05:26:23;99182.88;;;10.75;85.03
43503;BME280;29098;48.184;16.298;2023-05-10T05:28:48;99169.94;;;10.80;84.22
43503;BME280;29098;48.184;16.298;2023-05-10T05:31:16;99126.63;;;10.67;84.58
43503;BME280;29098;48.184;16.298;2023-05-10T05:33:42;99123.84;;;10.76;84.22
43503;BME280;29098;48.184;16.298;2023-05-10T05:36:08;99171.22;;;11.06;83.84
43503;BME280;29098;48.184;16.298;2023-05-10T05:38:34;99139.91;;;11.03;83.25
43503;BME280;29098;48.184;16.298;2023-05-10T05:40:59;99106.63;;;11.02;82.25
43503;BME280;29098;48.184;16.298;2023-05-10T05:43:25;99170.19;;;11.29;81.75
43503;BME280;29098;48.184;16.298;2023-05-10T05:45:52;99130.53;;;11.22;80.63
43503;BME280;29098;48.184;16.298;2023-05-10T05:48:18;99130.25;;;11.38;80.14
43503;BME280;29098;48.184;16.298;2023-05-10T05:50:44;99121.63;;;11.51;79.35
43503;BME280;29098;48.184;16.298;2023-05-10T05:53:10;99164.56;;;11.67;79.62
43503;BME280;29098;48.184;16.298;2023-05-10T05:55:36;99172.13;;;11.77;79.79
43503;BME280;29098;48.184;16.298;2023-05-10T05:58:01;99125.41;;;11.77;78.16
43503;BME280;29098;48.184;16.298;2023-05-10T06:00:26;99185.63;;;12.24;76.61
43503;BME280;29098;48.184;16.298;2023-05-10T06:02:52;99171.63;;;12.30;76.28
43503;BME280;29098;48.184;16.298;2023-05-10T06:05:17;99117.09;;;12.23;75.16
43503;BME280;29098;48.184;16.298;2023-05-10T06:07:43;99171.94;;;12.56;75.14
43503;BME280;29098;48.184;16.298;2023-05-10T06:10:09;99104.16;;;12.55;72.36
43503;BME280;29098;48.184;16.298;2023-05-10T06:12:34;99179.72;;;12.84;70.80
43503;BME280;29098;48.184;16.298;2023-05-10T06:15:00;99146.53;;;12.82;70.41
43503;BME280;29098;48.184;16.298;2023-05-10T06:17:25;99142.47;;;12.79;69.81
43503;BME280;29098;48.184;16.298;2023-05-10T06:19:51;99181.16;;;13.21;69.40
43503;BME280;29098;48.184;16.298;2023-05-10T06:22:17;99182.63;;;13.30;68.29
43503;BME280;29098;48.184;16.298;2023-05-10T06:24:42;99186.91;;;13.31;68.13
43503;BME280;29098;48.184;16.298;2023-05-10T06:27:08;99151.66;;;13.24;67.45
43503;BME280;29098;48.184;16.298;2023-05-10T06:29:34;99183.63;;;13.42;65.98
43503;BME280;29098;48.184;16.298;2023-05-10T06:31:59;99164.50;;;13.47;64.82
43503;BME280;29098;48.184;16.298;2023-05-10T06:34:25;99210.94;;;13.77;63.72
43503;BME280;29098;48.184;16.298;2023-05-10T06:36:50;99190.59;;;13.64;63.25
43503;BME280;29098;48.184;16.298;2023-05-10T06:39:16;99205.66;;;13.77;63.65
43503;BME280;29098;48.184;16.298;2023-05-10T06:41:42;99173.84;;;13.70;62.71
43503;BME280;29098;48.184;16.298;2023-05-10T06:44:07;99209.28;;;13.89;62.86
43503;BME280;29098;48.184;16.298;2023-05-10T06:46:33;99193.16;;;14.04;62.21
43503;BME280;29098;48.184;16.298;2023-05-10T06:48:59;99167.91;;;13.95;61.98
43503;BME280;29098;48.184;16.298;2023-05-10T06:51:25;99153.84;;;13.94;62.33
43503;BME280;29098;48.184;16.298;2023-05-10T06:53:51;99174.53;;;14.24;60.91
43503;BME280;29098;48.184;16.298;2023-05-10T06:56:16;99164.16;;;14.16;60.74
43503;BME280;29098;48.184;16.298;2023-05-10T06:58:42;99167.41;;;14.25;60.94
43503;BME280;29098;48.184;16.298;2023-05-10T07:01:07;99171.59;;;14.39;60.80
43503;BME280;29098;48.184;16.298;2023-05-10T07:03:33;99196.88;;;14.49;59.33
43503;BME280;29098;48.184;16.298;2023-05-10T07:06:02;99146.34;;;14.37;59.09
43503;BME280;29098;48.184;16.298;2023-05-10T07:08:33;99187.00;;;14.63;59.86
43503;BME280;29098;48.184;16.298;2023-05-10T07:11:03;99173.94;;;14.68;58.27
43503;BME280;29098;48.184;16.298;2023-05-10T07:13:31;99186.03;;;14.96;58.71
43503;BME280;29098;48.184;16.298;2023-05-10T07:15:57;99144.94;;;14.73;57.51
43503;BME280;29098;48.184;16.298;2023-05-10T07:18:23;99167.03;;;14.99;57.10
43503;BME280;29098;48.184;16.298;2023-05-10T07:20:49;99169.91;;;15.23;56.77
43503;BME280;29098;48.184;16.298;2023-05-10T07:23:14;99152.78;;;15.19;56.64
43503;BME280;29098;48.184;16.298;2023-05-10T07:25:40;99134.78;;;15.21;55.65
43503;BME280;29098;48.184;16.298;2023-05-10T07:28:05;99129.47;;;15.21;56.50
43503;BME280;29098;48.184;16.298;2023-05-10T07:30:31;99135.41;;;15.42;57.03
43503;BME280;29098;48.184;16.298;2023-05-10T07:32:56;99162.16;;;15.66;55.44
43503;BME280;29098;48.184;16.298;2023-05-10T07:35:22;99142.06;;;15.51;55.27
43503;BME280;29098;48.184;16.298;2023-05-10T07:37:47;99145.19;;;15.67;55.88
43503;BME280;29098;48.184;16.298;2023-05-10T07:40:12;99126.41;;;15.87;55.53
43503;BME280;29098;48.184;16.298;2023-05-10T07:42:38;99155.00;;;15.92;55.85
43503;BME280;29098;48.184;16.298;2023-05-10T07:45:04;99132.66;;;16.11;55.58
43503;BME280;29098;48.184;16.298;2023-05-10T07:47:30;99113.47;;;15.91;55.25
43503;BME280;29098;48.184;16.298;2023-05-10T07:49:55;99165.47;;;16.24;55.78
43503;BME280;29098;48.184;16.298;2023-05-10T07:52:21;99156.28;;;16.20;55.62
43503;BME280;29098;48.184;16.298;2023-05-10T07:54:46;99155.31;;;16.33;56.48
43503;BME280;29098;48.184;16.298;2023-05-10T07:57:11;99155.50;;;16.50;55.70
43503;BME280;29098;48.184;16.298;2023-05-10T07:59:39;99174.28;;;16.55;55.43
43503;BME280;29098;48.184;16.298;2023-05-10T08:02:05;99187.81;;;16.53;55.96
43503;BME280;29098;48.184;16.298;2023-05-10T08:04:31;99188.25;;;16.81;56.06
43503;BME280;29098;48.184;16.298;2023-05-10T08:06:56;99136.50;;;16.65;55.38
43503;BME280;29098;48.184;16.298;2023-05-10T08:09:22;99166.16;;;16.80;56.68
43503;BME280;29098;48.184;16.298;2023-05-10T08:11:49;99133.47;;;16.61;55.90
43503;BME280;29098;48.184;16.298;2023-05-10T08:14:14;99176.22;;;16.90;56.97
43503;BME280;29098;48.184;16.298;2023-05-10T08:16:40;99185.94;;;17.03;55.89
43503;BME280;29098;48.184;16.298;2023-05-10T08:19:05;99171.19;;;17.01;55.39
43503;BME280;29098;48.184;16.298;2023-05-10T08:21:31;99171.84;;;16.84;54.94
43503;BME280;29098;48.184;16.298;2023-05-10T08:23:56;99116.81;;;16.35;54.57
43503;BME280;29098;48.184;16.298;2023-05-10T08:26:21;99163.94;;;16.47;55.77
43503;BME280;29098;48.184;16.298;2023-05-10T08:28:47;99163.72;;;16.79;54.98
43503;BME280;29098;48.184;16.298;2023-05-10T08:31:12;99146.09;;;16.66;53.80
43503;BME280;29098;48.184;16.298;2023-05-10T08:33:38;99177.34;;;16.70;53.91
43503;BME280;29098;48.184;16.298;2023-05-10T08:36:03;99193.84;;;16.61;54.67
43503;BME280;29098;48.184;16.298;2023-05-10T08:38:29;99161.69;;;16.62;55.58
43503;BME280;29098;48.184;16.298;2023-05-10T08:40:55;99178.22;;;16.83;54.12
43503;BME280;29098;48.184;16.298;2023-05-10T08:43:23;99165.22;;;16.87;55.29
43503;BME280;29098;48.184;16.298;2023-05-10T08:45:53;99174.44;;;17.03;54.61
43503;BME280;29098;48.184;16.298;2023-05-10T08:48:19;99147.84;;;16.72;54.09
43503;BME280;29098;48.184;16.298;2023-05-10T08:50:47;99131.16;;;16.65;54.93
43503;BME280;29098;48.184;16.298;2023-05-10T08:53:14;99137.31;;;16.35;54.14
43503;BME280;29098;48.184;16.298;2023-05-10T08:55:41;99173.66;;;16.71;54.41
43503;BME280;29098;48.184;16.298;2023-05-10T08:58:08;99175.16;;;16.67;55.47
43503;BME280;29098;48.184;16.298;2023-05-10T09:00:35;99154.78;;;16.73;55.67
43503;BME280;29098;48.184;16.298;2023-05-10T09:03:03;99155.28;;;16.94;55.63
43503;BME280;29098;48.184;16.298;2023-05-10T09:05:28;99138.47;;;16.69;55.36
43503;BME280;29098;48.184;16.298;2023-05-10T09:07:54;99177.06;;;16.91;55.08
43503;BME280;29098;48.184;16.298;2023-05-10T09:10:20;99146.72;;;16.49;55.79
43503;BME280;29098;48.184;16.298;2023-05-10T09:12:46;99189.19;;;16.87;55.17
43503;BME280;29098;48.184;16.298;2023-05-10T09:15:15;99162.09;;;16.78;54.37
43503;BME280;29098;48.184;16.298;2023-05-10T09:17:40;99113.94;;;16.67;54.09
43503;BME280;29098;48.184;16.298;2023-05-10T09:20:07;99119.16;;;16.74;52.93
43503;BME280;29098;48.184;16.298;2023-05-10T09:22:34;99184.91;;;17.16;53.62
43503;BME280;29098;48.184;16.298;2023-05-10T09:25:11;99154.91;;;17.09;53.73
43503;BME280;29098;48.184;16.298;2023-05-10T09:27:38;99135.84;;;16.93;53.87
43503;BME280;29098;48.184;16.298;2023-05-10T09:30:04;99169.78;;;16.98;53.78
43503;BME280;29098;48.184;16.298;2023-05-10T09:32:40;99166.13;;;17.11;53.74
43503;BME280;29098;48.184;16.298;2023-05-10T09:35:07;99164.84;;;17.02;54.00
43503;BME280;29098;48.184;16.298;2023-05-10T09:37:33;99180.72;;;17.20;53.58
43503;BME280;29098;48.184;16.298;2023-05-10T09:39:58;99146.69;;;17.10;53.19
43503;BME280;29098;48.184;16.298;2023-05-10T09:42:24;99161.19;;;17.38;52.72
43503;BME280;29098;48.184;16.298;2023-05-10T09:44:49;99142.72;;;17.13;52.53
43503;BME280;29098;48.184;16.298;2023-05-10T09:47:18;99170.66;;;17.10;53.01
43503;BME280;29098;48.184;16.298;2023-05-10T09:49:50;99143.44;;;17.08;53.36
43503;BME280;29098;48.184;16.298;2023-05-10T09:52:16;99154.03;;;16.96;53.59
43503;BME280;29098;48.184;16.298;2023-05-10T09:54:47;99133.84;;;16.77;51.54
43503;BME280;29098;48.184;16.298;2023-05-10T09:57:21;99169.38;;;17.13;51.65
43503;BME280;29098;48.184;16.298;2023-05-10T09:59:47;99130.34;;;17.07;51.73
43503;BME280;29098;48.184;16.298;2023-05-10T10:02:13;99175.41;;;17.44;51.86
43503;BME280;29098;48.184;16.298;2023-05-10T10:04:42;99180.06;;;17.61;50.89
43503;BME280;29098;48.184;16.298;2023-05-10T10:07:07;99143.69;;;17.66;51.54
43503;BME280;29098;48.184;16.298;2023-05-10T10:09:34;99137.75;;;17.76;51.73
43503;BME280;29098;48.184;16.298;2023-05-10T10:12:00;99148.50;;;18.05;51.01
43503;BME280;29098;48.184;16.298;2023-05-10T10:14:27;99141.97;;;18.25;49.91
43503;BME280;29098;48.184;16.298;2023-05-10T10:16:53;99115.28;;;18.25;49.27
43503;BME280;29098;48.184;16.298;2023-05-10T10:19:20;99157.22;;;18.42;49.63
43503;BME280;29098;48.184;16.298;2023-05-10T10:21:46;99116.94;;;18.43;48.33
43503;BME280;29098;48.184;16.298;2023-05-10T10:24:12;99085.38;;;18.40;47.27
43503;BME280;29098;48.184;16.298;2023-05-10T10:26:38;99154.41;;;18.95;46.20
43503;BME280;29098;48.184;16.298;2023-05-10T10:29:19;99144.41;;;19.02;46.35
43503;BME280;29098;48.184;16.298;2023-05-10T10:32:19;99150.19;;;18.99;45.85
43503;BME280;29098;48.184;16.298;2023-05-10T10:34:47;99097.56;;;18.82;46.66
43503;BME280;29098;48.184;16.298;2023-05-10T10:37:13;99167.63;;;19.01;45.64
43503;BME280;29098;48.184;16.298;2023-05-10T10:39:38;99096.53;;;18.83;45.04
43503;BME280;29098;48.184;16.298;2023-05-10T10:42:04;99146.00;;;19.03;45.13
43503;BME280;29098;48.184;16.298;2023-05-10T10:52:36;99164.50;;;18.46;46.11
43503;BME280;29098;48.184;16.298;2023-05-10T10:57:32;99099.88;;;18.44;46.69
43503;BME280;29098;48.184;16.298;2023-05-10T11:00:21;99128.09;;;18.86;46.01
43503;BME280;29098;48.184;16.298;2023-05-10T11:02:49;99093.06;;;19.00;44.14
43503;BME280;29098;48.184;16.298;2023-05-10T11:05:37;99123.34;;;19.23;43.71
43503;BME280;29098;48.184;16.298;2023-05-10T11:10:50;99114.41;;;19.34;42.04
43503;BME280;29098;48.184;16.298;2023-05-10T11:13:27;99120.69;;;19.23;42.88
43503;BME280;29098;48.184;16.298;2023-05-10T11:15:53;99130.56;;;19.62;42.86
43503;BME280;29098;48.184;16.298;2023-05-10T11:18:24;99092.81;;;19.58;42.48
43503;BME280;29098;48.184;16.298;2023-05-10T11:23:18;99136.06;;;19.72;42.58
43503;BME280;29098;48.184;16.298;2023-05-10T11:25:45;99131.06;;;19.98;43.42
43503;BME280;29098;48.184;16.298;2023-05-10T11:28:16;99123.56;;;19.78;43.50
43503;BME280;29098;48.184;16.298;2023-05-10T11:30:43;99149.78;;;19.81;42.77
43503;BME280;29098;48.184;16.298;2023-05-10T11:33:09;99142.31;;;19.83;42.45
43503;BME280;29098;48.184;16.298;2023-05-10T11:35:40;99099.50;;;19.78;42.95
43503;BME280;29098;48.184;16.298;2023-05-10T11:38:07;99092.22;;;19.95;42.01
43503;BME280;29098;48.184;16.298;2023-05-10T11:40:33;99135.00;;;20.18;41.57
43503;BME280;29098;48.184;16.298;2023-05-10T11:42:59;99109.13;;;20.23;42.88
43503;BME280;29098;48.184;16.298;2023-05-10T11:45:25;99135.47;;;20.37;43.08
43503;BME280;29098;48.184;16.298;2023-05-10T11:47:51;99145.91;;;20.61;43.82
43503;BME280;29098;48.184;16.298;2023-05-10T11:50:17;99084.19;;;20.45;41.05
43503;BME280;29098;48.184;16.298;2023-05-10T11:52:42;99089.94;;;20.32;41.78
43503;BME280;29098;48.184;16.298;2023-05-10T11:55:08;99152.13;;;20.39;41.43
43503;BME280;29098;48.184;16.298;2023-05-10T11:57:34;99137.81;;;20.28;41.39
43503;BME280;29098;48.184;16.298;2023-05-10T12:00:00;99120.38;;;20.53;41.27
43503;BME280;29098;48.184;16.298;2023-05-10T12:02:25;99129.47;;;20.79;42.35
43503;BME280;29098;48.184;16.298;2023-05-10T12:04:51;99116.38;;;21.16;41.97
43503;BME280;29098;48.184;16.298;2023-05-10T12:07:17;99137.53;;;21.12;39.44
43503;BME280;29098;48.184;16.298;2023-05-10T12:10:12;99123.41;;;21.27;39.55
43503;BME280;29098;48.184;16.298;2023-05-10T12:12:45;99112.28;;;20.75;39.45
43503;BME280;29098;48.184;16.298;2023-05-10T12:15:18;99116.72;;;20.59;39.25
43503;BME280;29098;48.184;16.298;2023-05-10T12:17:47;99084.63;;;20.37;40.01
43503;BME280;29098;48.184;16.298;2023-05-10T12:20:14;99117.00;;;20.90;40.12
43503;BME280;29098;48.184;16.298;2023-05-10T12:22:41;99076.06;;;20.67;40.22
43503;BME280;29098;48.184;16.298;2023-05-10T12:25:09;99099.09;;;20.96;40.37
43503;BME280;29098;48.184;16.298;2023-05-10T12:27:35;99117.94;;;21.12;40.03
43503;BME280;29098;48.184;16.298;2023-05-10T12:30:00;99118.59;;;21.24;39.80
43503;BME280;29098;48.184;16.298;2023-05-10T12:32:41;99100.63;;;20.87;40.54
43503;BME280;29098;48.184;16.298;2023-05-10T12:35:07;99137.31;;;20.86;41.44
43503;BME280;29098;48.184;16.298;2023-05-10T12:37:33;99115.41;;;20.62;41.07
43503;BME280;29098;48.184;16.298;2023-05-10T12:40:06;99137.44;;;20.74;40.03
43503;BME280;29098;48.184;16.298;2023-05-10T12:42:32;99111.75;;;20.46;40.42
43503;BME280;29098;48.184;16.298;2023-05-10T12:44:57;99060.16;;;20.56;40.22
43503;BME280;29098;48.184;16.298;2023-05-10T12:47:24;99090.91;;;20.80;40.15
43503;BME280;29098;48.184;16.298;2023-05-10T12:49:49;99126.75;;;20.74;39.97
43503;BME280;29098;48.184;16.298;2023-05-10T12:52:16;99086.13;;;20.22;39.75
43503;BME280;29098;48.184;16.298;2023-05-10T12:54:41;99100.03;;;20.52;39.49
43503;BME280;29098;48.184;16.298;2023-05-10T12:57:07;99111.44;;;20.70;39.54
43503;BME280;29098;48.184;16.298;2023-05-10T12:59:32;99093.81;;;20.79;39.48
43503;BME280;29098;48.184;16.298;2023-05-10T13:01:57;99094.47;;;20.59;39.53
43503;BME280;29098;48.184;16.298;2023-05-10T13:04:23;99047.66;;;20.34;40.19
43503;BME280;29098;48.184;16.298;2023-05-10T13:06:48;99104.75;;;21.00;40.05
43503;BME280;29098;48.184;16.298;2023-05-10T13:09:14;99096.97;;;20.71;39.69
43503;BME280;29098;48.184;16.298;2023-05-10T13:11:40;99097.75;;;20.66;40.15
43503;BME280;29098;48.184;16.298;2023-05-10T13:14:05;99114.03;;;20.87;39.52
43503;BME280;29098;48.184;16.298;2023-05-10T13:16:31;99090.22;;;20.63;40.14
43503;BME280;29098;48.184;16.298;2023-05-10T13:18:56;99064.25;;;20.63;39.68
43503;BME280;29098;48.184;16.298;2023-05-10T13:21:22;99090.91;;;20.80;38.88
43503;BME280;29098;48.184;16.298;2023-05-10T13:23:49;99081.94;;;20.37;39.94